createdAt,value
2023-12-02T00:01:35.010Z,3.43
2023-12-02T00:04:03.301Z,2.87
2023-12-02T00:06:31.654Z,3.33
2023-12-02T00:09:00.042Z,3.57
2023-12-02T00:11:28.413Z,4.20
2023-12-02T00:13:56.594Z,3.37
2023-12-02T00:16:24.843Z,2.73
2023-12-02T00:18:54.553Z,3.27
2023-12-02T00:21:22.981Z,3.63
2023-12-02T00:23:51.293Z,2.73
2023-12-02T00:26:19.507Z,2.50
2023-12-02T00:28:47.777Z,2.83
2023-12-02T00:31:16.115Z,2.53
2023-12-02T00:33:44.378Z,3.73
2023-12-02T00:36:15.295Z,3.93
2023-12-02T00:38:43.734Z,2.27
2023-12-02T00:41:13.056Z,3.07
2023-12-02T00:43:41.715Z,3.37
2023-12-02T00:46:10.489Z,1.87
2023-12-02T00:48:38.981Z,2.40
2023-12-02T00:51:08.943Z,2.10
2023-12-02T00:53:38.842Z,4.10
2023-12-02T00:56:08.469Z,2.43
2023-12-02T00:58:41.375Z,3.53
2023-12-02T01:01:10.803Z,2.33
2023-12-02T01:03:39.304Z,2.13
2023-12-02T01:06:08.481Z,1.63
2023-12-02T01:08:36.900Z,2.40
2023-12-02T01:11:07.566Z,3.17
2023-12-02T01:13:35.918Z,1.50
2023-12-02T01:16:05.070Z,1.23
2023-12-02T01:18:33.977Z,2.13
2023-12-02T01:21:02.504Z,2.07
2023-12-02T01:23:30.993Z,3.83
2023-12-02T01:25:59.976Z,2.40
2023-12-02T01:28:29.812Z,1.20
2023-12-02T01:30:58.719Z,1.87
2023-12-02T01:33:27.193Z,4.33
2023-12-02T01:35:55.966Z,3.50
2023-12-02T01:38:26.300Z,2.73
2023-12-02T01:40:54.664Z,3.90
2023-12-02T01:43:27.131Z,6.30
2023-12-02T01:45:57.506Z,2.90
2023-12-02T01:48:30.925Z,3.07
2023-12-02T01:50:59.967Z,3.13
2023-12-02T01:53:28.623Z,2.77
2023-12-02T01:55:56.924Z,4.17
2023-12-02T01:58:25.595Z,3.00
2023-12-02T02:00:53.925Z,3.90
2023-12-02T02:03:23.646Z,2.10
2023-12-02T02:05:54.314Z,2.23
2023-12-02T02:08:22.829Z,2.63
2023-12-02T02:10:57.583Z,3.80
2023-12-02T02:13:26.153Z,2.53
2023-12-02T02:15:54.712Z,2.57
2023-12-02T02:18:25.223Z,1.80
2023-12-02T02:20:54.690Z,4.33
2023-12-02T02:23:25.586Z,3.17
2023-12-02T02:25:55.493Z,3.53
2023-12-02T02:28:24.409Z,2.63
2023-12-02T02:30:53.204Z,3.47
2023-12-02T02:33:22.317Z,4.77
2023-12-02T02:35:50.915Z,2.60
2023-12-02T02:38:20.028Z,5.30
2023-12-02T02:40:49.892Z,4.23
2023-12-02T02:43:18.593Z,3.33
2023-12-02T02:45:47.889Z,5.67
2023-12-02T02:48:16.464Z,3.40
2023-12-02T02:50:45.628Z,3.63
2023-12-02T02:53:14.179Z,4.10
2023-12-02T02:55:42.644Z,3.03
2023-12-02T02:58:12.570Z,6.67
2023-12-02T03:00:43.068Z,6.20
2023-12-02T03:03:11.550Z,3.27
2023-12-02T03:05:39.956Z,4.07
2023-12-02T03:08:08.432Z,6.07
2023-12-02T03:10:37.655Z,3.47
2023-12-02T03:13:06.033Z,3.30
2023-12-02T03:15:35.938Z,6.23
2023-12-02T03:18:04.665Z,4.37
2023-12-02T03:20:33.165Z,6.33
2023-12-02T03:23:01.631Z,3.63
2023-12-02T03:25:30.082Z,3.10
2023-12-02T03:27:58.580Z,3.27
2023-12-02T03:30:26.866Z,3.77
2023-12-02T03:32:57.152Z,4.57
2023-12-02T03:35:26.173Z,3.23
2023-12-02T03:37:55.795Z,4.43
2023-12-02T03:40:24.189Z,3.70
2023-12-02T03:42:52.673Z,3.97
2023-12-02T03:45:22.722Z,5.73
2023-12-02T03:47:51.162Z,5.27
2023-12-02T03:50:21.191Z,7.43
2023-12-02T03:52:49.667Z,3.23
2023-12-02T03:55:19.791Z,5.20
2023-12-02T03:57:48.147Z,3.57
2023-12-02T04:00:20.644Z,3.23
2023-12-02T04:02:49.236Z,3.23
2023-12-02T04:05:17.729Z,3.87
2023-12-02T04:07:47.646Z,3.20
2023-12-02T04:10:16.241Z,5.10
2023-12-02T04:12:44.574Z,4.23
2023-12-02T04:15:13.170Z,5.23
2023-12-02T04:17:41.700Z,4.53
2023-12-02T04:20:12.404Z,4.80
2023-12-02T04:22:41.356Z,5.37
2023-12-02T04:25:11.585Z,5.27
2023-12-02T04:27:42.004Z,4.40
2023-12-02T04:30:11.107Z,6.77
2023-12-02T04:32:40.204Z,4.00
2023-12-02T04:35:10.259Z,2.20
2023-12-02T04:37:40.026Z,4.17
2023-12-02T04:40:12.884Z,3.77
2023-12-02T04:42:42.244Z,2.83
2023-12-02T04:45:11.203Z,4.03
2023-12-02T04:47:39.785Z,5.73
2023-12-02T04:50:09.909Z,4.60
2023-12-02T04:52:38.485Z,5.03
2023-12-02T04:55:08.044Z,5.20
2023-12-02T04:57:38.160Z,3.60
2023-12-02T05:00:15.509Z,3.17
2023-12-02T05:02:44.422Z,5.17
2023-12-02T05:05:14.135Z,3.93
2023-12-02T05:07:43.069Z,5.30
2023-12-02T05:10:12.581Z,3.33
2023-12-02T05:12:42.766Z,2.90
2023-12-02T05:15:11.926Z,3.33
2023-12-02T05:17:40.431Z,4.13
2023-12-02T05:20:12.628Z,4.60
2023-12-02T05:22:40.998Z,3.33
2023-12-02T05:25:10.144Z,3.83
2023-12-02T05:27:39.253Z,4.53
2023-12-02T05:30:10.828Z,5.03
2023-12-02T05:32:41.222Z,3.13
2023-12-02T05:35:13.200Z,3.67
2023-12-02T05:37:44.080Z,4.57
2023-12-02T05:40:13.410Z,5.97
2023-12-02T05:42:43.760Z,4.20
2023-12-02T05:45:14.032Z,3.80
2023-12-02T05:47:42.449Z,3.97
2023-12-02T05:50:11.553Z,4.70
2023-12-02T05:52:39.971Z,2.57
2023-12-02T05:55:10.871Z,4.67
2023-12-02T05:57:40.054Z,3.37
2023-12-02T06:00:09.506Z,5.87
2023-12-02T06:02:39.388Z,4.33
2023-12-02T06:05:09.156Z,6.93
2023-12-02T06:07:37.648Z,5.67
2023-12-02T06:10:08.769Z,6.03
2023-12-02T06:12:37.424Z,4.17
2023-12-02T06:15:08.171Z,3.63
2023-12-02T06:17:37.028Z,3.50
2023-12-02T06:20:10.615Z,7.13
2023-12-02T06:22:39.458Z,7.53
2023-12-02T06:25:08.278Z,3.93
2023-12-02T06:27:36.761Z,4.33
2023-12-02T06:30:06.299Z,3.50
2023-12-02T06:32:34.911Z,4.90
2023-12-02T06:35:06.289Z,8.87
2023-12-02T06:37:36.067Z,4.67
2023-12-02T06:40:04.905Z,3.47
2023-12-02T06:42:33.318Z,3.20
2023-12-02T06:45:01.673Z,3.83
2023-12-02T06:47:30.065Z,3.87
2023-12-02T06:49:58.529Z,3.53
2023-12-02T06:52:26.818Z,3.53
2023-12-02T06:57:27.787Z,3.20
2023-12-02T06:59:56.523Z,2.90
2023-12-02T07:02:24.976Z,4.17
2023-12-02T07:04:53.433Z,3.77
2023-12-02T07:07:21.720Z,3.40
2023-12-02T07:09:49.972Z,4.03
2023-12-02T07:12:19.845Z,4.77
2023-12-02T07:14:48.229Z,5.13
2023-12-02T07:17:16.546Z,5.93
2023-12-02T07:19:44.925Z,2.83
2023-12-02T07:22:13.275Z,4.13
2023-12-02T07:24:41.656Z,3.77
2023-12-02T07:27:10.117Z,3.57
2023-12-02T07:32:11.192Z,3.57
2023-12-02T07:34:40.792Z,4.77
2023-12-02T07:37:09.131Z,2.93
2023-12-02T07:39:37.529Z,2.10
2023-12-02T07:42:06.713Z,2.80
2023-12-02T07:44:35.290Z,3.30
2023-12-02T07:47:05.583Z,2.37
2023-12-02T07:49:34.170Z,4.23
2023-12-02T07:52:02.536Z,3.30
2023-12-02T07:54:32.872Z,3.67
2023-12-02T07:57:01.199Z,3.53
2023-12-02T07:59:29.501Z,2.87
2023-12-02T08:01:58.232Z,3.63
2023-12-02T08:04:28.144Z,2.67
2023-12-02T08:06:56.486Z,2.60
2023-12-02T08:09:24.702Z,2.60
2023-12-02T08:11:53.034Z,2.97
2023-12-02T08:14:21.389Z,2.20
2023-12-02T08:16:49.939Z,3.97
2023-12-02T08:19:18.939Z,5.23
2023-12-02T08:21:48.731Z,2.53
2023-12-02T08:24:17.766Z,3.07
2023-12-02T08:26:48.498Z,2.23
2023-12-02T08:29:16.916Z,3.00
2023-12-02T08:31:45.393Z,2.97
2023-12-02T08:34:15.962Z,2.63
2023-12-02T08:36:44.845Z,5.90
2023-12-02T08:39:15.628Z,3.93
2023-12-02T08:41:43.941Z,3.90
2023-12-02T08:44:15.140Z,2.87
2023-12-02T08:46:44.728Z,2.60
2023-12-02T08:49:13.051Z,4.90
2023-12-02T08:51:41.812Z,3.73
2023-12-02T08:54:10.072Z,3.50
2023-12-02T08:56:39.897Z,2.13
2023-12-02T08:59:08.334Z,2.83
2023-12-02T09:01:36.697Z,3.23
2023-12-02T09:04:05.624Z,3.13
2023-12-02T09:06:35.103Z,2.30
2023-12-02T09:09:04.236Z,3.27
2023-12-02T09:11:32.769Z,5.10
2023-12-02T09:14:02.661Z,3.33
2023-12-02T09:16:32.435Z,3.80
2023-12-02T09:19:01.165Z,8.80
2023-12-02T09:21:42.842Z,7.87
2023-12-02T09:24:36.980Z,5.90
2023-12-02T09:27:07.993Z,6.03
2023-12-02T09:29:39.384Z,3.47
2023-12-02T09:32:27.772Z,5.67
2023-12-02T09:35:01.855Z,5.03
2023-12-02T09:38:01.159Z,3.80
2023-12-02T09:40:38.892Z,2.97
2023-12-02T09:43:22.578Z,4.10
2023-12-02T09:46:05.823Z,7.00
2023-12-02T09:48:37.280Z,3.93
2023-12-02T09:51:15.188Z,4.43
2023-12-02T09:53:53.350Z,3.80
2023-12-02T09:56:25.016Z,4.10
2023-12-02T09:59:03.939Z,3.57
2023-12-02T10:01:41.258Z,4.67
2023-12-02T10:04:24.844Z,9.43
2023-12-02T10:06:57.797Z,8.03
2023-12-02T10:09:42.210Z,7.30
2023-12-02T10:12:32.048Z,6.30
2023-12-02T10:15:02.965Z,5.77
2023-12-02T10:17:39.505Z,5.83
2023-12-02T10:20:14.138Z,4.37
2023-12-02T10:22:47.211Z,4.03
2023-12-02T10:25:34.712Z,3.80
2023-12-02T10:28:13.405Z,5.20
2023-12-02T10:30:48.613Z,3.73
2023-12-02T10:33:29.613Z,3.77
2023-12-02T10:36:06.904Z,2.10
2023-12-02T10:38:51.659Z,1.90
2023-12-02T10:41:28.665Z,4.37
2023-12-02T10:43:58.662Z,2.40
2023-12-02T10:46:27.979Z,4.60
2023-12-02T10:48:59.127Z,4.07
2023-12-02T10:51:29.411Z,2.27
2023-12-02T10:54:00.794Z,4.10
2023-12-02T10:56:32.071Z,2.73
2023-12-02T10:59:03.193Z,3.00
2023-12-02T11:01:39.147Z,3.73
2023-12-02T11:04:19.725Z,2.13
2023-12-02T11:06:53.050Z,2.27
2023-12-02T11:09:33.198Z,1.73
2023-12-02T11:12:10.026Z,2.30
2023-12-02T11:14:42.288Z,1.30
2023-12-02T11:17:18.878Z,1.73
2023-12-02T11:20:08.806Z,0.57
2023-12-02T11:22:52.345Z,0.87
2023-12-02T11:25:30.469Z,0.20
2023-12-02T11:28:06.225Z,0.50
2023-12-02T11:30:50.123Z,0.20
2023-12-02T11:33:26.030Z,0.10
2023-12-02T11:36:10.291Z,0.47
2023-12-02T11:38:45.307Z,0.10
2023-12-02T11:41:28.560Z,0.30
2023-12-02T11:44:19.356Z,0.63
2023-12-02T11:47:03.845Z,0.60
2023-12-02T11:49:44.344Z,3.10
2023-12-02T11:52:23.962Z,3.57
2023-12-02T11:55:08.629Z,0.50
2023-12-02T11:57:47.524Z,0.63
2023-12-02T12:00:20.318Z,1.83
2023-12-02T12:03:12.267Z,0.63
2023-12-02T12:05:48.039Z,1.33
2023-12-02T12:08:23.511Z,0.47
2023-12-02T12:10:55.659Z,0.40
2023-12-02T12:13:26.648Z,0.50
2023-12-02T12:15:55.063Z,0.30
2023-12-02T12:18:23.407Z,0.50
2023-12-02T12:20:56.786Z,1.70
2023-12-02T12:23:29.519Z,2.13
2023-12-02T12:25:57.880Z,0.47
2023-12-02T12:28:27.236Z,1.60
2023-12-02T12:30:55.660Z,0.30
2023-12-02T12:33:24.141Z,1.27
2023-12-02T12:35:52.813Z,0.20
2023-12-02T12:38:23.703Z,0.20
2023-12-02T12:40:53.638Z,0.40
2023-12-02T12:43:21.935Z,0.30
2023-12-02T12:45:53.266Z,0.30
2023-12-02T12:48:27.151Z,0.50
2023-12-02T12:50:58.699Z,0.30
2023-12-02T12:53:30.984Z,0.53
2023-12-02T12:56:10.400Z,1.13
2023-12-02T12:58:53.936Z,0.43
2023-12-02T13:01:24.348Z,0.43
2023-12-02T13:03:53.321Z,0.30
2023-12-02T13:06:34.925Z,0.50
2023-12-02T13:09:09.745Z,0.30
2023-12-02T13:11:59.639Z,0.73
2023-12-02T13:14:34.990Z,0.67
2023-12-02T13:17:04.229Z,0.20
2023-12-02T13:19:33.798Z,0.50
2023-12-02T13:22:03.350Z,0.90
2023-12-02T13:24:41.314Z,0.40
2023-12-02T13:27:16.689Z,2.90
2023-12-02T13:29:46.371Z,1.77
2023-12-02T13:32:15.432Z,2.67
2023-12-02T13:34:51.246Z,0.83
2023-12-02T13:37:24.772Z,0.60
2023-12-02T13:40:01.520Z,0.37
2023-12-02T13:42:39.042Z,0.63
2023-12-02T13:45:11.870Z,0.53
2023-12-02T13:47:54.710Z,0.70
2023-12-02T13:50:25.311Z,0.57
2023-12-02T13:53:01.990Z,0.77
2023-12-02T13:56:00.461Z,0.63
2023-12-02T13:58:38.161Z,1.53
2023-12-02T14:01:09.913Z,1.37
2023-12-02T14:03:52.129Z,0.50
2023-12-02T14:06:21.804Z,1.33
2023-12-02T14:08:55.319Z,1.40
2023-12-02T14:11:42.931Z,0.80
2023-12-02T14:14:33.753Z,0.67
2023-12-02T14:17:14.803Z,0.77
2023-12-02T14:20:03.962Z,1.33
2023-12-02T14:22:57.710Z,1.47
2023-12-02T14:25:53.196Z,0.93
2023-12-02T14:28:36.611Z,1.07
2023-12-02T14:31:23.255Z,1.20
2023-12-02T14:34:21.233Z,1.13
2023-12-02T14:37:19.954Z,0.93
2023-12-02T14:40:32.725Z,2.93
2023-12-02T14:43:15.523Z,2.50
2023-12-02T14:45:44.200Z,2.63
2023-12-02T14:48:17.768Z,1.77
2023-12-02T14:50:49.092Z,2.87
2023-12-02T14:53:19.092Z,3.00
2023-12-02T14:55:47.540Z,1.80
2023-12-02T14:58:24.792Z,1.80
2023-12-02T15:00:57.338Z,1.63
2023-12-02T15:03:31.344Z,2.40
2023-12-02T15:06:01.178Z,2.23
2023-12-02T15:08:32.742Z,1.27
2023-12-02T15:11:02.266Z,2.60
2023-12-02T15:13:31.362Z,2.53
2023-12-02T15:16:00.928Z,1.60
2023-12-02T15:18:32.027Z,2.27
2023-12-02T15:21:09.076Z,2.33
2023-12-02T15:23:41.430Z,2.47
2023-12-02T15:26:14.064Z,1.63
2023-12-02T15:29:03.869Z,1.23
2023-12-02T15:31:31.958Z,1.57
2023-12-02T15:34:02.903Z,1.73
2023-12-02T15:36:32.115Z,1.77
2023-12-02T15:39:01.132Z,3.43
2023-12-02T15:43:59.537Z,1.97
2023-12-02T15:46:29.008Z,1.23
2023-12-02T15:48:57.949Z,1.50
2023-12-02T15:51:30.324Z,1.43
2023-12-02T15:54:00.271Z,2.90
2023-12-02T15:56:32.139Z,2.20
2023-12-02T15:59:02.235Z,2.40
2023-12-02T16:01:31.083Z,2.27
2023-12-02T16:04:00.526Z,1.93
2023-12-02T16:06:33.043Z,1.57
2023-12-02T16:09:02.072Z,2.03
2023-12-02T16:11:37.731Z,2.57
2023-12-02T16:14:07.483Z,1.37
2023-12-02T16:16:38.947Z,0.97
2023-12-02T16:19:08.202Z,1.53
2023-12-02T16:21:38.379Z,1.33
2023-12-02T16:24:08.502Z,1.33
2023-12-02T16:26:38.649Z,1.30
2023-12-02T16:29:07.565Z,2.63
2023-12-02T16:31:37.524Z,2.97
2023-12-02T16:34:06.066Z,1.13
2023-12-02T16:36:38.556Z,1.47
2023-12-02T16:39:11.650Z,1.37
2023-12-02T16:41:40.140Z,0.97
2023-12-02T16:44:08.882Z,0.87
2023-12-02T16:46:40.204Z,1.83
2023-12-02T16:49:15.587Z,1.63
2023-12-02T16:51:46.377Z,1.50
2023-12-02T16:54:15.846Z,1.00
2023-12-02T16:56:45.145Z,0.93
2023-12-02T16:59:43.377Z,1.37
2023-12-02T17:02:29.653Z,3.60
2023-12-02T17:04:58.193Z,1.47
2023-12-02T17:07:29.598Z,1.50
2023-12-02T17:09:58.377Z,1.63
2023-12-02T17:12:27.592Z,2.73
2023-12-02T17:15:03.580Z,4.37
2023-12-02T17:17:33.588Z,2.77
2023-12-02T17:20:02.947Z,4.50
2023-12-02T17:22:34.378Z,2.00
2023-12-02T17:25:02.889Z,2.27
2023-12-02T17:27:42.926Z,1.87
2023-12-02T17:30:13.216Z,2.97
2023-12-02T17:32:41.975Z,2.77
2023-12-02T17:35:10.890Z,2.50
2023-12-02T17:37:40.864Z,3.53
2023-12-02T17:40:10.818Z,5.97
2023-12-02T17:42:39.348Z,15.23
2023-12-02T17:45:09.303Z,12.63
2023-12-02T17:47:37.794Z,10.53
2023-12-02T17:50:08.730Z,10.73
2023-12-02T17:52:37.124Z,10.43
2023-12-02T17:55:08.764Z,7.17
2023-12-02T17:57:37.190Z,7.13
2023-12-02T18:00:07.219Z,10.93
2023-12-02T18:02:35.739Z,12.27
2023-12-02T18:05:04.919Z,10.07
2023-12-02T18:07:33.457Z,11.13
2023-12-02T18:10:02.548Z,9.97
2023-12-02T18:12:33.001Z,9.20
2023-12-02T18:15:01.615Z,9.60
2023-12-02T18:17:30.150Z,11.87
2023-12-02T18:19:58.756Z,8.70
2023-12-02T18:22:27.182Z,9.13
2023-12-02T18:24:55.689Z,9.27
2023-12-02T18:27:24.282Z,10.57
2023-12-02T18:29:55.595Z,9.00
2023-12-02T18:32:24.079Z,9.80
2023-12-02T18:34:52.621Z,9.27
2023-12-02T18:37:21.937Z,4.63
2023-12-02T18:39:50.498Z,4.73
2023-12-02T18:42:19.198Z,5.30
2023-12-02T18:44:47.674Z,4.67
2023-12-02T18:47:17.709Z,3.60
2023-12-02T18:49:49.742Z,2.77
2023-12-02T18:52:18.305Z,5.30
2023-12-02T18:54:46.796Z,2.40
2023-12-02T18:57:15.295Z,3.87
2023-12-02T18:59:43.795Z,6.73
2023-12-02T19:02:12.213Z,5.63
2023-12-02T19:04:42.321Z,5.90
2023-12-02T19:07:11.424Z,5.93
2023-12-02T19:09:39.846Z,2.17
2023-12-02T19:12:09.299Z,4.70
2023-12-02T19:14:38.195Z,3.37
2023-12-02T19:17:07.208Z,2.80
2023-12-02T19:19:36.079Z,3.57
2023-12-02T19:22:06.219Z,2.90
2023-12-02T19:24:34.753Z,3.87
2023-12-02T19:27:03.235Z,2.47
2023-12-02T19:29:31.693Z,4.17
2023-12-02T19:32:00.247Z,3.37
2023-12-02T19:34:31.161Z,4.07
2023-12-02T19:37:02.260Z,2.60
2023-12-02T19:39:32.448Z,2.40
2023-12-02T19:42:01.032Z,4.53
2023-12-02T19:44:29.560Z,6.13
2023-12-02T19:46:58.697Z,4.27
2023-12-02T19:49:27.302Z,4.40
2023-12-02T19:51:56.043Z,10.10
2023-12-02T19:54:24.897Z,3.53
2023-12-02T19:56:54.769Z,3.97
2023-12-02T19:59:23.306Z,3.77
2023-12-02T20:01:52.540Z,4.60
2023-12-02T20:04:21.187Z,4.13
2023-12-02T20:06:49.831Z,4.33
2023-12-02T20:09:19.860Z,3.43
2023-12-02T20:11:48.485Z,2.10
2023-12-02T20:14:18.510Z,2.77
2023-12-02T20:16:47.234Z,3.93
2023-12-02T20:19:15.749Z,4.13
2023-12-02T20:21:44.304Z,3.07
2023-12-02T20:24:13.357Z,2.37
2023-12-02T20:26:41.880Z,1.83
2023-12-02T20:29:10.648Z,3.97
2023-12-02T20:31:41.201Z,3.90
2023-12-02T20:34:09.975Z,3.40
2023-12-02T20:36:39.855Z,3.73
2023-12-02T20:39:09.796Z,2.80
2023-12-02T20:41:39.491Z,1.67
2023-12-02T20:44:07.974Z,2.17
2023-12-02T20:46:36.394Z,3.77
2023-12-02T20:49:06.343Z,3.80
2023-12-02T20:51:35.146Z,3.63
2023-12-02T20:54:03.588Z,2.67
2023-12-02T20:56:32.472Z,2.60
2023-12-02T20:59:01.087Z,3.17
2023-12-02T21:01:30.252Z,2.73
2023-12-02T21:04:02.135Z,2.17
2023-12-02T21:06:34.960Z,2.53
2023-12-02T21:09:04.731Z,2.80
2023-12-02T21:11:35.624Z,2.63
2023-12-02T21:14:05.730Z,2.53
2023-12-02T21:16:34.396Z,4.83
2023-12-02T21:19:03.255Z,1.90
2023-12-02T21:21:33.332Z,2.43
2023-12-02T21:24:01.891Z,3.50
2023-12-02T21:26:30.511Z,1.70
2023-12-02T21:28:59.343Z,3.70
2023-12-02T21:31:36.459Z,2.50
2023-12-02T21:34:07.229Z,2.60
2023-12-02T21:36:38.554Z,4.33
2023-12-02T21:39:20.050Z,1.43
2023-12-02T21:41:51.853Z,1.50
2023-12-02T21:44:20.452Z,1.93
2023-12-02T21:47:09.800Z,1.37
2023-12-02T21:49:40.803Z,2.27
2023-12-02T21:52:14.824Z,2.93
2023-12-02T21:54:45.149Z,2.43
2023-12-02T21:57:15.706Z,3.13
2023-12-02T22:00:06.537Z,2.63
2023-12-02T22:02:38.318Z,2.33
2023-12-02T22:05:07.398Z,3.57
2023-12-02T22:07:37.384Z,3.90
2023-12-02T22:10:14.365Z,1.67
2023-12-02T22:12:42.948Z,1.20
2023-12-02T22:15:30.585Z,3.53
2023-12-02T22:18:02.358Z,4.73
2023-12-02T22:20:31.052Z,3.20
2023-12-02T22:23:02.185Z,1.70
2023-12-02T22:25:31.991Z,2.50
2023-12-02T22:28:05.621Z,2.13
2023-12-02T22:30:53.260Z,1.80
2023-12-02T22:33:23.816Z,2.40
2023-12-02T22:35:57.817Z,2.00
2023-12-02T22:38:36.467Z,3.27
2023-12-02T22:41:07.563Z,2.40
2023-12-02T22:43:42.327Z,2.27
2023-12-02T22:46:14.397Z,2.47
2023-12-02T22:48:45.776Z,2.70
2023-12-02T22:51:19.156Z,3.63
2023-12-02T22:53:49.676Z,1.80
2023-12-02T22:56:22.214Z,2.10
2023-12-02T22:58:52.275Z,2.17
2023-12-02T23:01:22.453Z,3.23
2023-12-02T23:03:52.575Z,1.40
2023-12-02T23:06:24.173Z,2.03
2023-12-02T23:08:54.118Z,1.57
2023-12-02T23:11:48.515Z,1.50
2023-12-02T23:14:42.032Z,2.13
2023-12-02T23:17:15.083Z,4.60
2023-12-02T23:19:43.609Z,2.00
2023-12-02T23:22:12.613Z,3.17
2023-12-02T23:24:42.821Z,3.23
2023-12-02T23:27:23.241Z,2.47
2023-12-02T23:29:56.886Z,2.43
2023-12-02T23:32:26.026Z,3.07
2023-12-02T23:34:56.394Z,3.40
2023-12-02T23:37:30.829Z,2.27
2023-12-02T23:40:01.018Z,3.00
2023-12-02T23:42:35.825Z,1.53
2023-12-02T23:45:05.042Z,3.20
2023-12-02T23:47:33.471Z,1.03
2023-12-02T23:50:02.508Z,2.60
2023-12-02T23:52:31.136Z,2.03
2023-12-02T23:55:01.232Z,2.50
2023-12-02T23:57:30.427Z,1.63
2023-12-02T23:59:59.560Z,1.47
